createdAt,value
2023-05-16T00:00:45.415Z,0.00
2023-05-16T00:01:45.463Z,0.00
2023-05-16T00:02:45.555Z,0.00
2023-05-16T00:03:45.489Z,0.00
2023-05-16T00:04:45.395Z,0.00
2023-05-16T00:05:45.453Z,0.00
2023-05-16T00:06:45.387Z,0.00
2023-05-16T00:07:45.377Z,0.00
2023-05-16T00:08:45.378Z,0.00
2023-05-16T00:09:45.368Z,0.00
2023-05-16T00:10:45.365Z,0.00
2023-05-16T00:11:45.354Z,0.00
2023-05-16T00:12:45.407Z,0.00
2023-05-16T00:13:45.355Z,0.00
2023-05-16T00:14:45.359Z,0.00
2023-05-16T00:15:45.335Z,0.00
2023-05-16T00:16:45.359Z,0.00
2023-05-16T00:17:45.338Z,0.00
2023-05-16T00:18:45.351Z,0.00
2023-05-16T00:19:45.310Z,0.00
2023-05-16T00:20:45.304Z,0.00
2023-05-16T00:21:45.309Z,0.00
2023-05-16T00:22:45.294Z,0.00
2023-05-16T00:23:45.298Z,0.00
2023-05-16T00:24:45.278Z,0.00
2023-05-16T00:25:45.273Z,0.00
2023-05-16T00:26:45.269Z,0.00
2023-05-16T00:27:45.265Z,0.00
2023-05-16T00:28:45.313Z,0.00
2023-05-16T00:29:45.251Z,0.00
2023-05-16T00:30:45.245Z,0.00
2023-05-16T00:31:45.279Z,0.00
2023-05-16T00:32:45.265Z,0.00
2023-05-16T00:33:45.229Z,0.00
2023-05-16T00:34:45.244Z,0.00
2023-05-16T00:35:45.237Z,0.00
2023-05-16T00:36:45.219Z,0.00
2023-05-16T00:37:45.213Z,0.00
2023-05-16T00:38:45.207Z,0.00
2023-05-16T00:39:45.191Z,0.00
2023-05-16T00:40:45.196Z,0.00
2023-05-16T00:41:45.184Z,0.00
2023-05-16T00:42:45.182Z,0.00
2023-05-16T00:43:45.172Z,0.00
2023-05-16T00:44:45.187Z,0.00
2023-05-16T00:45:45.158Z,0.00
2023-05-16T00:46:45.294Z,0.00
2023-05-16T00:47:45.196Z,0.00
2023-05-16T00:48:45.157Z,0.00
2023-05-16T00:49:45.134Z,0.00
2023-05-16T00:50:45.133Z,0.00
2023-05-16T00:51:45.128Z,0.00
2023-05-16T00:52:45.117Z,0.00
2023-05-16T00:53:45.115Z,0.00
2023-05-16T00:54:45.106Z,0.00
2023-05-16T00:55:45.099Z,0.00
2023-05-16T00:56:45.107Z,0.00
2023-05-16T00:57:45.089Z,0.00
2023-05-16T00:58:45.087Z,0.00
2023-05-16T00:59:45.075Z,0.00
2023-05-16T01:00:47.161Z,0.00
2023-05-16T01:01:45.101Z,0.00
2023-05-16T01:02:45.095Z,0.00
2023-05-16T01:03:45.111Z,0.00
2023-05-16T01:04:45.063Z,0.00
2023-05-16T01:05:45.044Z,0.00
2023-05-16T01:06:45.033Z,0.00
2023-05-16T01:07:45.048Z,0.00
2023-05-16T01:08:45.021Z,0.00
2023-05-16T01:09:45.015Z,0.00
2023-05-16T01:10:45.017Z,0.00
2023-05-16T01:11:45.020Z,0.00
2023-05-16T01:12:44.999Z,0.00
2023-05-16T01:13:44.990Z,0.00
2023-05-16T01:14:44.977Z,0.00
2023-05-16T01:15:45.008Z,0.00
2023-05-16T01:16:44.970Z,0.00
2023-05-16T01:17:45.018Z,0.00
2023-05-16T01:18:44.980Z,0.00
2023-05-16T01:19:44.952Z,0.00
2023-05-16T01:20:44.946Z,0.00
2023-05-16T01:21:44.941Z,0.00
2023-05-16T01:22:44.934Z,0.00
2023-05-16T01:23:44.926Z,0.00
2023-05-16T01:24:44.969Z,0.00
2023-05-16T01:25:44.941Z,0.00
2023-05-16T01:26:44.908Z,0.00
2023-05-16T01:27:44.922Z,0.00
2023-05-16T01:28:44.897Z,0.00
2023-05-16T01:29:44.887Z,0.00
2023-05-16T01:30:44.898Z,0.00
2023-05-16T01:31:44.966Z,0.00
2023-05-16T01:32:44.898Z,0.00
2023-05-16T01:33:44.878Z,0.00
2023-05-16T01:34:44.869Z,0.00
2023-05-16T01:35:44.852Z,0.00
2023-05-16T01:36:44.858Z,0.00
2023-05-16T01:37:44.842Z,0.00
2023-05-16T01:38:44.861Z,0.00
2023-05-16T01:39:44.832Z,0.00
2023-05-16T01:40:44.819Z,0.00
2023-05-16T01:41:44.819Z,0.00
2023-05-16T01:42:44.817Z,0.00
2023-05-16T01:43:44.797Z,0.00
2023-05-16T01:44:44.799Z,0.00
2023-05-16T01:45:44.799Z,0.00
2023-05-16T01:46:44.829Z,0.00
2023-05-16T01:47:44.848Z,0.00
2023-05-16T01:48:44.797Z,0.00
2023-05-16T01:49:44.762Z,0.00
2023-05-16T01:50:44.804Z,0.00
2023-05-16T01:51:44.754Z,0.00
2023-05-16T01:52:44.744Z,0.00
2023-05-16T01:53:44.738Z,0.00
2023-05-16T01:54:44.740Z,0.00
2023-05-16T01:55:44.731Z,0.00
2023-05-16T01:56:44.722Z,0.00
2023-05-16T01:57:44.716Z,0.00
2023-05-16T01:58:44.713Z,0.00
2023-05-16T01:59:44.706Z,0.00
2023-05-16T02:00:44.754Z,0.00
2023-05-16T02:01:44.720Z,0.00
2023-05-16T02:02:44.728Z,0.00
2023-05-16T02:03:44.693Z,0.00
2023-05-16T02:04:44.676Z,0.00
2023-05-16T02:05:44.668Z,0.00
2023-05-16T02:06:44.657Z,0.00
2023-05-16T02:07:44.661Z,0.00
2023-05-16T02:08:44.651Z,0.00
2023-05-16T02:09:44.634Z,0.00
2023-05-16T02:10:44.650Z,0.00
2023-05-16T02:11:44.627Z,0.00
2023-05-16T02:12:44.624Z,0.00
2023-05-16T02:13:44.639Z,0.00
2023-05-16T02:14:44.624Z,0.00
2023-05-16T02:15:44.618Z,0.00
2023-05-16T02:16:44.651Z,0.00
2023-05-16T02:17:44.643Z,0.00
2023-05-16T02:18:44.592Z,0.00
2023-05-16T02:19:44.579Z,0.00
2023-05-16T02:20:44.587Z,0.00
2023-05-16T02:21:44.557Z,0.00
2023-05-16T02:22:44.569Z,0.00
2023-05-16T02:23:44.553Z,0.00
2023-05-16T02:24:44.554Z,0.00
2023-05-16T02:25:44.554Z,0.00
2023-05-16T02:26:44.545Z,0.00
2023-05-16T02:27:44.529Z,0.00
2023-05-16T02:28:44.524Z,0.00
2023-05-16T02:29:44.517Z,0.00
2023-05-16T02:30:44.556Z,0.00
2023-05-16T02:31:44.508Z,0.00
2023-05-16T02:32:44.556Z,0.00
2023-05-16T02:33:44.481Z,0.00
2023-05-16T02:34:44.498Z,0.00
2023-05-16T02:35:44.483Z,0.00
2023-05-16T02:36:44.471Z,0.00
2023-05-16T02:37:44.465Z,0.00
2023-05-16T02:38:44.459Z,0.00
2023-05-16T02:39:44.447Z,0.00
2023-05-16T02:40:44.446Z,0.00
2023-05-16T02:41:44.438Z,0.00
2023-05-16T02:42:44.438Z,0.00
2023-05-16T02:43:46.908Z,0.00
2023-05-16T02:44:44.416Z,0.00
2023-05-16T02:45:44.409Z,0.00
2023-05-16T02:46:44.430Z,0.00
2023-05-16T02:47:44.417Z,0.00
2023-05-16T02:48:44.395Z,0.00
2023-05-16T02:49:44.388Z,0.00
2023-05-16T02:50:44.379Z,0.00
2023-05-16T02:51:44.380Z,0.00
2023-05-16T02:52:44.370Z,0.00
2023-05-16T02:53:44.352Z,0.00
2023-05-16T02:54:46.806Z,0.00
2023-05-16T02:55:44.353Z,0.00
2023-05-16T02:56:44.348Z,0.00
2023-05-16T02:57:44.337Z,0.00
2023-05-16T02:58:44.324Z,0.00
2023-05-16T02:59:44.327Z,0.00
2023-05-16T03:00:44.311Z,0.00
2023-05-16T03:01:44.392Z,0.00
2023-05-16T03:02:44.422Z,0.00
2023-05-16T03:03:44.551Z,0.00
2023-05-16T03:04:44.287Z,0.00
2023-05-16T03:05:44.286Z,0.00
2023-05-16T03:06:44.285Z,0.00
2023-05-16T03:07:44.284Z,0.00
2023-05-16T03:08:44.338Z,0.00
2023-05-16T03:09:44.298Z,0.00
2023-05-16T03:10:44.249Z,0.00
2023-05-16T03:11:44.247Z,0.00
2023-05-16T03:12:44.239Z,0.00
2023-05-16T03:13:44.229Z,0.00
2023-05-16T03:14:44.221Z,0.00
2023-05-16T03:15:44.236Z,0.00
2023-05-16T03:16:44.260Z,0.00
2023-05-16T03:17:44.236Z,0.00
2023-05-16T03:18:44.241Z,0.00
2023-05-16T03:19:44.186Z,0.00
2023-05-16T03:20:44.185Z,0.00
2023-05-16T03:21:44.194Z,0.00
2023-05-16T03:22:44.175Z,0.00
2023-05-16T03:23:44.165Z,0.00
2023-05-16T03:24:44.230Z,0.00
2023-05-16T03:25:44.155Z,0.00
2023-05-16T03:26:44.137Z,0.00
2023-05-16T03:27:44.135Z,0.00
2023-05-16T03:28:44.122Z,0.00
2023-05-16T03:29:44.125Z,0.00
2023-05-16T03:30:44.125Z,4.00
2023-05-16T03:31:44.135Z,0.00
2023-05-16T03:32:44.140Z,4.00
2023-05-16T03:33:44.093Z,0.00
2023-05-16T03:34:44.095Z,0.00
2023-05-16T03:35:44.085Z,4.00
2023-05-16T03:36:44.078Z,4.00
2023-05-16T03:37:44.065Z,8.00
2023-05-16T03:38:44.062Z,8.00
2023-05-16T03:39:44.060Z,8.00
2023-05-16T03:40:44.051Z,8.00
2023-05-16T03:41:44.044Z,8.00
2023-05-16T03:42:44.029Z,8.00
2023-05-16T03:43:44.030Z,12.00
2023-05-16T03:44:44.019Z,8.00
2023-05-16T03:45:44.030Z,8.00
2023-05-16T03:46:44.019Z,12.00
2023-05-16T03:47:44.022Z,12.00
2023-05-16T03:48:44.007Z,12.00
2023-05-16T03:49:43.996Z,12.00
2023-05-16T03:50:43.983Z,12.00
2023-05-16T03:51:43.984Z,16.00
2023-05-16T03:52:43.980Z,16.00
2023-05-16T03:53:43.965Z,16.00
2023-05-16T03:54:43.950Z,16.00
2023-05-16T03:55:43.953Z,16.00
2023-05-16T03:56:43.992Z,16.00
2023-05-16T03:57:43.941Z,32.00
2023-05-16T03:58:43.925Z,36.00
2023-05-16T03:59:43.918Z,32.00
2023-05-16T04:00:43.925Z,44.00
2023-05-16T04:01:43.964Z,44.00
2023-05-16T04:02:44.113Z,48.00
2023-05-16T04:03:43.905Z,48.00
2023-05-16T04:04:43.877Z,56.00
2023-05-16T04:05:43.903Z,60.00
2023-05-16T04:06:43.867Z,60.00
2023-05-16T04:07:43.860Z,60.00
2023-05-16T04:08:43.845Z,68.00
2023-05-16T04:09:43.854Z,68.00
2023-05-16T04:10:43.833Z,72.00
2023-05-16T04:11:43.829Z,64.00
2023-05-16T04:12:43.825Z,60.00
2023-05-16T04:13:43.857Z,60.00
2023-05-16T04:14:43.816Z,64.00
2023-05-16T04:15:43.807Z,68.00
2023-05-16T04:16:43.842Z,72.00
2023-05-16T04:17:43.841Z,80.00
2023-05-16T04:18:43.816Z,88.00
2023-05-16T04:19:43.793Z,88.00
2023-05-16T04:20:43.771Z,88.00
2023-05-16T04:21:43.752Z,84.00
2023-05-16T04:22:43.765Z,76.00
2023-05-16T04:23:43.770Z,64.00
2023-05-16T04:24:43.732Z,60.00
2023-05-16T04:25:43.730Z,60.00
2023-05-16T04:26:43.746Z,60.00
2023-05-16T04:27:43.713Z,60.00
2023-05-16T04:28:43.699Z,56.00
2023-05-16T04:29:43.702Z,60.00
2023-05-16T04:30:43.704Z,64.00
2023-05-16T04:31:43.700Z,64.00
2023-05-16T04:32:43.701Z,68.00
2023-05-16T04:33:43.669Z,72.00
2023-05-16T04:34:43.665Z,72.00
2023-05-16T04:35:43.663Z,72.00
2023-05-16T04:36:43.670Z,76.00
2023-05-16T04:41:13.605Z,80.00
2023-05-16T04:42:12.650Z,84.00
2023-05-16T04:43:12.430Z,76.00
2023-05-16T04:44:12.424Z,72.00
2023-05-16T04:45:12.374Z,84.00
2023-05-16T04:46:12.420Z,76.00
2023-05-16T04:47:12.395Z,68.00
2023-05-16T04:48:12.329Z,64.00
2023-05-16T04:49:12.342Z,68.00
2023-05-16T04:50:12.340Z,76.00
2023-05-16T04:51:12.320Z,76.00
2023-05-16T04:52:12.315Z,76.00
2023-05-16T04:53:12.301Z,68.00
2023-05-16T04:54:12.288Z,72.00
2023-05-16T04:55:12.291Z,56.00
2023-05-16T04:56:12.288Z,52.00
2023-05-16T04:57:12.272Z,48.00
2023-05-16T04:58:12.266Z,48.00
2023-05-16T04:59:12.268Z,56.00
2023-05-16T05:00:12.271Z,56.00
2023-05-16T05:01:12.289Z,60.00
2023-05-16T05:02:12.378Z,56.00
2023-05-16T05:03:12.321Z,56.00
2023-05-16T05:04:12.225Z,68.00
2023-05-16T05:05:12.249Z,72.00
2023-05-16T05:06:12.208Z,76.00
2023-05-16T05:07:12.189Z,76.00
2023-05-16T05:08:12.188Z,80.00
2023-05-16T05:09:12.183Z,80.00
2023-05-16T05:10:12.175Z,84.00
2023-05-16T05:11:12.171Z,80.00
2023-05-16T05:12:12.158Z,72.00
2023-05-16T05:13:12.162Z,68.00
2023-05-16T05:14:12.145Z,68.00
2023-05-16T05:15:12.139Z,76.00
2023-05-16T05:16:12.132Z,92.00
2023-05-16T05:17:12.153Z,88.00
2023-05-16T05:18:12.170Z,88.00
2023-05-16T05:19:12.142Z,80.00
2023-05-16T05:20:12.113Z,72.00
2023-05-16T05:21:12.099Z,68.00
2023-05-16T05:22:12.093Z,68.00
2023-05-16T05:23:12.084Z,76.00
2023-05-16T05:24:12.079Z,68.00
2023-05-16T05:25:12.059Z,72.00
2023-05-16T05:26:12.059Z,68.00
2023-05-16T05:27:12.048Z,64.00
2023-05-16T05:28:12.045Z,76.00
2023-05-16T05:29:12.038Z,64.00
2023-05-16T05:30:12.028Z,72.00
2023-05-16T05:31:12.052Z,68.00
2023-05-16T05:32:12.198Z,68.00
2023-05-16T05:33:12.127Z,76.00
2023-05-16T05:34:12.029Z,76.00
2023-05-16T05:35:12.000Z,84.00
2023-05-16T05:36:11.984Z,72.00
2023-05-16T05:37:11.979Z,72.00
2023-05-16T05:38:11.979Z,88.00
2023-05-16T05:39:11.958Z,88.00
2023-05-16T05:40:11.964Z,84.00
2023-05-16T05:41:11.951Z,132.00
2023-05-16T05:42:11.943Z,152.00
2023-05-16T05:43:11.946Z,168.00
2023-05-16T05:44:11.939Z,176.00
2023-05-16T05:45:11.920Z,188.00
2023-05-16T05:46:11.947Z,224.00
2023-05-16T05:47:11.907Z,288.00
2023-05-16T05:48:11.908Z,360.00
2023-05-16T05:49:11.931Z,392.00
2023-05-16T05:50:11.883Z,400.00
2023-05-16T05:51:11.879Z,428.00
2023-05-16T05:52:11.867Z,516.00
2023-05-16T05:53:11.858Z,608.00
2023-05-16T05:54:11.851Z,780.00
2023-05-16T05:55:11.862Z,944.00
2023-05-16T05:56:11.849Z,1008.00
2023-05-16T05:57:11.832Z,1120.00
2023-05-16T05:58:11.825Z,1264.00
2023-05-16T05:59:11.823Z,1216.00
2023-05-16T06:00:11.816Z,1104.00
2023-05-16T06:01:11.803Z,1020.00
2023-05-16T06:02:11.821Z,904.00
2023-05-16T06:03:11.812Z,928.00
2023-05-16T06:04:11.782Z,908.00
2023-05-16T06:05:11.813Z,1016.00
2023-05-16T06:06:11.770Z,1200.00
2023-05-16T06:07:11.761Z,1304.00
2023-05-16T06:08:11.760Z,1356.00
2023-05-16T06:09:11.747Z,1380.00
2023-05-16T06:10:11.757Z,1412.00
2023-05-16T06:11:11.744Z,1400.00
2023-05-16T06:12:11.725Z,1356.00
2023-05-16T06:13:11.721Z,1348.00
2023-05-16T06:14:11.724Z,1284.00
2023-05-16T06:15:11.719Z,1236.00
2023-05-16T06:16:11.700Z,1484.00
2023-05-16T06:17:11.760Z,1528.00
2023-05-16T06:18:11.747Z,1712.00
2023-05-16T06:19:11.839Z,1616.00
2023-05-16T06:20:11.679Z,1668.00
2023-05-16T06:21:11.673Z,1372.00
2023-05-16T06:22:11.653Z,1396.00
2023-05-16T06:23:11.644Z,1592.00
2023-05-16T06:24:11.645Z,1440.00
2023-05-16T06:25:11.633Z,1412.00
2023-05-16T06:26:11.627Z,1228.00
2023-05-16T06:27:11.647Z,1428.00
2023-05-16T06:28:11.621Z,1452.00
2023-05-16T06:29:11.604Z,1380.00
2023-05-16T06:30:11.596Z,1444.00
2023-05-16T06:31:11.624Z,1332.00
2023-05-16T06:32:13.305Z,1140.00
2023-05-16T06:33:11.612Z,1108.00
2023-05-16T06:34:11.568Z,1080.00
2023-05-16T06:35:11.594Z,1096.00
2023-05-16T06:36:11.566Z,1084.00
2023-05-16T06:37:11.550Z,1028.00
2023-05-16T06:38:11.539Z,1060.00
2023-05-16T06:39:11.559Z,1100.00
2023-05-16T06:40:11.529Z,1200.00
2023-05-16T06:41:11.529Z,1296.00
2023-05-16T06:42:11.508Z,1452.00
2023-05-16T06:43:11.506Z,1992.00
2023-05-16T06:44:11.509Z,2216.00
2023-05-16T06:45:11.496Z,1628.00
2023-05-16T06:46:11.537Z,1244.00
2023-05-16T06:47:11.481Z,1252.00
2023-05-16T06:48:11.501Z,1108.00
2023-05-16T06:49:11.464Z,1632.00
2023-05-16T06:50:11.461Z,2076.00
2023-05-16T06:51:11.449Z,1768.00
2023-05-16T06:52:11.436Z,1568.00
2023-05-16T06:53:11.441Z,1584.00
2023-05-16T06:54:11.453Z,1884.00
2023-05-16T06:55:11.431Z,1532.00
2023-05-16T06:56:11.418Z,1160.00
2023-05-16T06:57:11.408Z,1164.00
2023-05-16T06:58:11.407Z,1300.00
2023-05-16T06:59:11.394Z,1160.00
2023-05-16T07:00:11.393Z,1168.00
2023-05-16T07:01:11.400Z,1340.00
2023-05-16T07:02:11.376Z,1448.00
2023-05-16T07:03:11.469Z,2032.00
2023-05-16T07:04:11.453Z,2552.00
2023-05-16T07:05:11.355Z,2544.00
2023-05-16T07:06:11.349Z,2464.00
2023-05-16T07:07:11.338Z,2120.00
2023-05-16T07:08:11.361Z,2544.00
2023-05-16T07:09:11.322Z,2428.00
2023-05-16T07:10:11.321Z,1460.00
2023-05-16T07:11:11.319Z,1260.00
2023-05-16T07:12:11.307Z,1248.00
2023-05-16T07:13:11.313Z,1388.00
2023-05-16T07:14:11.295Z,1232.00
2023-05-16T07:15:11.303Z,1460.00
2023-05-16T07:16:11.370Z,1688.00
2023-05-16T07:17:11.328Z,1404.00
2023-05-16T07:18:11.329Z,1492.00
2023-05-16T07:19:11.279Z,992.00
2023-05-16T07:20:11.254Z,1332.00
2023-05-16T07:21:11.262Z,1708.00
2023-05-16T07:22:11.242Z,1448.00
2023-05-16T07:23:11.244Z,1128.00
2023-05-16T07:24:11.225Z,1196.00
2023-05-16T07:25:11.226Z,1604.00
2023-05-16T07:26:11.216Z,916.00
2023-05-16T07:27:11.212Z,984.00
2023-05-16T07:28:11.209Z,1148.00
2023-05-16T07:29:11.194Z,1716.00
2023-05-16T07:30:11.195Z,1268.00
2023-05-16T07:31:11.231Z,1148.00
2023-05-16T07:32:11.340Z,1036.00
2023-05-16T07:33:11.189Z,1024.00
2023-05-16T07:34:11.171Z,1400.00
2023-05-16T07:35:11.156Z,1296.00
2023-05-16T07:36:16.651Z,1648.00
2023-05-16T07:37:11.136Z,1088.00
2023-05-16T07:38:11.141Z,1432.00
2023-05-16T07:39:11.142Z,1744.00
2023-05-16T07:40:11.140Z,1764.00
2023-05-16T07:41:11.119Z,2300.00
2023-05-16T07:42:11.129Z,2916.00
2023-05-16T07:43:11.115Z,3100.00
2023-05-16T07:44:11.118Z,2440.00
2023-05-16T07:45:11.079Z,1424.00
2023-05-16T07:46:11.129Z,1032.00
2023-05-16T07:47:11.092Z,1168.00
2023-05-16T07:48:11.105Z,1196.00
2023-05-16T07:49:11.070Z,1540.00
2023-05-16T07:50:11.057Z,1780.00
2023-05-16T07:51:11.050Z,1732.00
2023-05-16T07:52:11.046Z,1900.00
2023-05-16T07:53:11.030Z,1696.00
2023-05-16T07:54:11.017Z,1592.00
2023-05-16T07:55:11.018Z,1352.00
2023-05-16T07:56:11.028Z,1404.00
2023-05-16T07:57:11.010Z,1640.00
2023-05-16T07:58:11.008Z,1852.00
2023-05-16T07:59:11.014Z,1636.00
2023-05-16T08:00:11.012Z,1636.00
2023-05-16T08:01:10.971Z,1572.00
2023-05-16T08:02:11.036Z,1764.00
2023-05-16T08:03:11.198Z,1688.00
2023-05-16T08:04:10.957Z,1420.00
2023-05-16T08:05:11.050Z,1788.00
2023-05-16T08:06:11.079Z,2128.00
2023-05-16T08:07:10.954Z,2044.00
2023-05-16T08:08:10.933Z,2540.00
2023-05-16T08:09:10.948Z,2076.00
2023-05-16T08:10:13.374Z,1968.00
2023-05-16T08:11:10.919Z,1676.00
2023-05-16T08:12:10.955Z,1792.00
2023-05-16T08:13:10.894Z,1908.00
2023-05-16T08:14:10.888Z,2024.00
2023-05-16T08:15:10.884Z,2108.00
2023-05-16T08:16:10.912Z,2136.00
2023-05-16T08:17:10.880Z,2468.00
2023-05-16T08:18:10.905Z,2520.00
2023-05-16T08:19:10.961Z,2580.00
2023-05-16T08:20:10.842Z,2632.00
2023-05-16T08:21:10.859Z,2668.00
2023-05-16T08:22:10.836Z,3308.00
2023-05-16T08:23:10.833Z,3148.00
2023-05-16T08:24:10.813Z,2884.00
2023-05-16T08:25:10.812Z,2180.00
2023-05-16T08:26:10.839Z,2560.00
2023-05-16T08:27:10.802Z,2376.00
2023-05-16T08:28:10.794Z,2088.00
2023-05-16T08:29:10.805Z,1884.00
2023-05-16T08:30:10.785Z,1968.00
2023-05-16T08:31:10.859Z,1976.00
2023-05-16T08:32:10.774Z,1984.00
2023-05-16T08:33:10.883Z,2196.00
2023-05-16T08:34:10.777Z,2136.00
2023-05-16T08:35:10.757Z,2424.00
2023-05-16T08:36:10.744Z,2436.00
2023-05-16T08:37:10.740Z,2588.00
2023-05-16T08:38:10.732Z,2908.00
2023-05-16T08:39:10.755Z,2372.00
2023-05-16T08:40:10.846Z,1876.00
2023-05-16T08:41:10.732Z,1652.00
2023-05-16T08:42:10.707Z,1676.00
2023-05-16T08:43:10.709Z,2536.00
2023-05-16T08:44:10.694Z,2616.00
2023-05-16T08:45:10.700Z,2496.00
2023-05-16T08:46:10.681Z,2000.00
2023-05-16T08:47:10.806Z,1424.00
2023-05-16T08:48:10.858Z,2044.00
2023-05-16T08:49:10.678Z,2096.00
2023-05-16T08:50:10.692Z,2160.00
2023-05-16T08:51:10.661Z,2220.00
2023-05-16T08:52:10.649Z,2240.00
2023-05-16T08:53:10.651Z,2252.00
2023-05-16T08:54:10.637Z,2280.00
2023-05-16T08:55:11.664Z,2376.00
2023-05-16T08:56:10.622Z,2468.00
2023-05-16T08:57:10.625Z,2512.00
2023-05-16T08:58:10.607Z,2520.00
2023-05-16T08:59:10.640Z,2548.00
2023-05-16T09:00:10.602Z,2588.00
2023-05-16T09:01:10.667Z,2636.00
2023-05-16T09:02:10.589Z,2708.00
2023-05-16T09:03:10.630Z,2812.00
2023-05-16T09:04:10.604Z,3240.00
2023-05-16T09:05:10.581Z,4608.00
2023-05-16T09:06:10.569Z,6156.00
2023-05-16T09:07:10.572Z,5316.00
2023-05-16T09:08:10.554Z,2960.00
2023-05-16T09:09:10.542Z,3068.00
2023-05-16T09:10:10.554Z,5576.00
2023-05-16T09:11:10.536Z,6268.00
2023-05-16T09:12:10.531Z,1844.00
2023-05-16T09:13:10.523Z,2248.00
2023-05-16T09:14:10.526Z,8816.00
2023-05-16T09:15:10.516Z,8556.00
2023-05-16T09:16:10.506Z,9160.00
2023-05-16T09:17:12.486Z,9468.00
2023-05-16T09:18:10.565Z,9052.00
2023-05-16T09:19:10.543Z,9476.00
2023-05-16T09:20:10.487Z,10232.00
2023-05-16T09:21:10.490Z,9556.00
2023-05-16T09:22:10.496Z,2908.00
2023-05-16T09:23:10.481Z,10568.00
2023-05-16T09:24:10.472Z,9652.00
2023-05-16T09:25:18.430Z,9940.00
2023-05-16T09:26:10.465Z,11396.00
2023-05-16T09:27:10.479Z,10528.00
2023-05-16T09:28:10.454Z,11016.00
2023-05-16T09:29:10.458Z,11768.00
2023-05-16T09:30:10.445Z,11516.00
2023-05-16T09:31:10.494Z,13744.00
2023-05-16T09:32:10.487Z,4364.00
2023-05-16T09:33:10.467Z,5592.00
2023-05-16T09:34:10.434Z,3512.00
2023-05-16T09:35:10.426Z,2724.00
2023-05-16T09:36:10.441Z,2752.00
2023-05-16T09:37:10.447Z,4300.00
2023-05-16T09:38:10.428Z,4620.00
2023-05-16T09:39:10.409Z,4640.00
2023-05-16T09:40:10.431Z,14828.00
2023-05-16T09:41:10.408Z,4164.00
2023-05-16T09:42:10.405Z,13708.00
2023-05-16T09:43:10.411Z,28704.00
2023-05-16T09:44:10.392Z,34496.00
2023-05-16T09:45:10.387Z,38080.00
2023-05-16T09:46:10.403Z,40768.00
2023-05-16T09:47:10.392Z,42080.00
2023-05-16T09:48:10.496Z,24256.00
2023-05-16T09:49:10.377Z,41792.00
2023-05-16T09:50:10.361Z,41856.00
2023-05-16T09:51:10.369Z,42688.00
2023-05-16T09:52:10.362Z,43680.00
2023-05-16T09:53:10.357Z,43136.00
2023-05-16T09:54:10.358Z,41568.00
2023-05-16T09:55:10.363Z,47264.00
2023-05-16T09:56:10.368Z,15064.00
2023-05-16T09:57:10.343Z,2596.00
2023-05-16T09:58:10.346Z,26496.00
2023-05-16T09:59:10.350Z,47872.00
2023-05-16T10:00:10.339Z,5196.00
2023-05-16T10:01:10.342Z,3036.00
2023-05-16T10:02:10.385Z,2552.00
2023-05-16T10:03:10.382Z,2664.00
2023-05-16T10:04:10.484Z,3172.00
2023-05-16T10:05:10.329Z,2408.00
2023-05-16T10:06:10.321Z,1956.00
2023-05-16T10:07:10.330Z,5048.00
2023-05-16T10:08:10.309Z,48256.00
2023-05-16T10:09:10.315Z,45280.00
2023-05-16T10:10:10.310Z,47168.00
2023-05-16T10:11:10.306Z,48160.00
2023-05-16T10:12:10.295Z,9456.00
2023-05-16T10:13:10.331Z,7432.00
2023-05-16T10:14:10.292Z,3332.00
2023-05-16T10:15:10.300Z,2208.00
2023-05-16T10:16:10.309Z,2520.00
2023-05-16T10:17:10.296Z,7472.00
2023-05-16T10:18:10.293Z,51520.00
2023-05-16T10:19:10.298Z,49504.00
2023-05-16T10:20:10.449Z,5656.00
2023-05-16T10:21:11.762Z,49760.00
2023-05-16T10:22:10.313Z,17536.00
2023-05-16T10:23:10.280Z,9792.00
2023-05-16T10:24:10.864Z,4308.00
2023-05-16T10:25:10.275Z,10396.00
2023-05-16T10:26:10.267Z,43712.00
2023-05-16T10:27:10.268Z,47872.00
2023-05-16T10:28:10.264Z,50688.00
2023-05-16T10:29:10.268Z,55104.00
2023-05-16T10:30:10.253Z,6968.00
2023-05-16T10:31:10.249Z,13640.00
2023-05-16T10:32:10.310Z,11580.00
2023-05-16T10:33:10.312Z,3112.00
2023-05-16T10:34:10.241Z,3228.00
2023-05-16T10:35:10.241Z,8124.00
2023-05-16T10:36:10.411Z,2836.00
2023-05-16T10:37:10.237Z,3264.00
2023-05-16T10:38:10.230Z,2600.00
2023-05-16T10:39:10.229Z,3512.00
2023-05-16T10:40:10.222Z,4524.00
2023-05-16T10:41:10.230Z,2824.00
2023-05-16T10:42:10.219Z,2696.00
2023-05-16T10:43:10.227Z,2976.00
2023-05-16T10:44:10.218Z,60480.00
2023-05-16T10:45:10.230Z,60032.00
2023-05-16T10:46:10.320Z,61952.00
2023-05-16T10:47:10.211Z,60544.00
2023-05-16T10:48:10.355Z,59712.00
2023-05-16T10:49:10.205Z,5960.00
2023-05-16T10:50:10.230Z,2712.00
2023-05-16T10:51:10.201Z,2432.00
2023-05-16T10:52:10.310Z,26528.00
2023-05-16T10:53:10.199Z,21984.00
2023-05-16T10:54:10.196Z,2608.00
2023-05-16T10:55:10.185Z,3132.00
2023-05-16T10:56:10.188Z,59328.00
2023-05-16T10:57:10.203Z,61824.00
2023-05-16T10:58:10.174Z,62240.00
2023-05-16T10:59:10.175Z,58656.00
2023-05-16T11:00:10.176Z,61056.00
2023-05-16T11:01:10.231Z,61472.00
2023-05-16T11:02:10.196Z,61120.00
2023-05-16T11:03:10.254Z,60928.00
2023-05-16T11:04:10.183Z,60960.00
2023-05-16T11:05:10.207Z,60384.00
2023-05-16T11:06:10.159Z,61728.00
2023-05-16T11:07:10.156Z,28032.00
2023-05-16T11:08:10.401Z,35648.00
2023-05-16T11:09:10.329Z,53696.00
2023-05-16T11:10:10.153Z,23328.00
2023-05-16T11:11:10.161Z,58368.00
2023-05-16T11:12:10.187Z,53504.00
2023-05-16T11:13:10.160Z,24384.00
2023-05-16T11:14:10.142Z,3984.00
2023-05-16T11:15:10.147Z,2516.00
2023-05-16T11:16:10.144Z,2204.00
2023-05-16T11:17:10.192Z,1964.00
2023-05-16T11:18:10.199Z,1612.00
2023-05-16T11:19:10.191Z,2028.00
2023-05-16T11:20:10.139Z,2292.00
2023-05-16T11:21:10.138Z,1892.00
2023-05-16T11:22:10.162Z,1976.00
2023-05-16T11:23:10.132Z,1880.00
2023-05-16T11:24:10.127Z,2364.00
2023-05-16T11:25:10.130Z,4264.00
2023-05-16T11:26:10.149Z,3436.00
2023-05-16T11:27:10.128Z,2956.00
2023-05-16T11:28:10.122Z,2132.00
2023-05-16T11:29:10.136Z,1760.00
2023-05-16T11:30:10.142Z,2568.00
2023-05-16T11:31:10.133Z,2488.00
2023-05-16T11:32:10.120Z,2352.00
2023-05-16T11:33:10.148Z,2488.00
2023-05-16T11:34:10.116Z,2472.00
2023-05-16T11:35:11.061Z,2516.00
2023-05-16T11:37:10.104Z,2644.00
2023-05-16T11:38:10.092Z,3388.00
2023-05-16T11:39:10.121Z,3704.00
2023-05-16T11:40:10.105Z,3368.00
2023-05-16T11:41:10.127Z,2812.00
2023-05-16T11:42:10.089Z,2932.00
2023-05-16T11:43:10.072Z,3260.00
2023-05-16T11:44:10.089Z,3272.00
2023-05-16T11:45:10.076Z,2916.00
2023-05-16T11:46:10.102Z,3492.00
2023-05-16T11:47:10.171Z,3620.00
2023-05-16T11:48:10.788Z,3676.00
2023-05-16T11:49:10.060Z,3380.00
2023-05-16T11:50:10.102Z,3924.00
2023-05-16T11:51:10.070Z,4104.00
2023-05-16T11:52:10.045Z,3748.00
2023-05-16T11:53:10.050Z,3836.00
2023-05-16T11:54:10.050Z,3380.00
2023-05-16T11:55:10.047Z,2524.00
2023-05-16T11:56:10.058Z,2676.00
2023-05-16T11:57:10.032Z,2496.00
2023-05-16T11:58:10.051Z,2844.00
2023-05-16T11:59:10.029Z,2756.00
2023-05-16T12:00:10.034Z,2684.00
2023-05-16T12:01:10.016Z,3596.00
2023-05-16T12:02:10.023Z,3136.00
2023-05-16T12:03:10.109Z,2728.00
2023-05-16T12:04:10.144Z,2396.00
2023-05-16T12:05:10.230Z,2180.00
2023-05-16T12:06:09.989Z,2548.00
2023-05-16T12:07:10.003Z,2792.00
2023-05-16T12:08:09.992Z,3164.00
2023-05-16T12:09:09.979Z,3464.00
2023-05-16T12:10:09.991Z,3576.00
2023-05-16T12:11:09.979Z,3720.00
2023-05-16T12:12:09.998Z,3752.00
2023-05-16T12:13:09.971Z,3944.00
2023-05-16T12:14:09.956Z,3568.00
2023-05-16T12:15:09.966Z,3636.00
2023-05-16T12:16:10.000Z,3720.00
2023-05-16T12:17:09.995Z,3816.00
2023-05-16T12:18:10.022Z,3908.00
2023-05-16T12:19:09.987Z,3808.00
2023-05-16T12:20:09.952Z,3452.00
2023-05-16T12:21:09.949Z,3284.00
2023-05-16T12:22:09.935Z,3356.00
2023-05-16T12:23:09.928Z,2936.00
2023-05-16T12:24:09.923Z,2296.00
2023-05-16T12:25:09.922Z,1952.00
2023-05-16T12:26:09.926Z,1712.00
2023-05-16T12:27:09.914Z,1712.00
2023-05-16T12:28:09.931Z,1904.00
2023-05-16T12:29:09.905Z,2044.00
2023-05-16T12:30:09.903Z,2144.00
2023-05-16T12:31:22.978Z,2140.00
2023-05-16T12:32:09.937Z,2076.00
2023-05-16T12:33:09.939Z,2228.00
2023-05-16T12:34:09.891Z,2504.00
2023-05-16T12:35:09.877Z,2464.00
2023-05-16T12:36:09.881Z,2376.00